Mavi — WDJ4729 — position and weather

sailwx.info

Track history (hours):
 
Tides and Currents Weather Stations Pressure Air Temp Water Temp Dewpoint Dewpoint Depression Visibility Wind Speed Wind Dir Waves Ship Positions

Mavi

Owner: Atalay, Kadri M, Silver Spring, MD. More information available from US FCC via Universal Licensing System and Coast Guard Vessel Documentation Center.

Last reported at 2018-Jun-21 11:53 UTC. Time now 2018-Jun-25 09:24 UTC.
Position N 39°30' W 075°55'.

Length 15 m.

Type: Sailing vessel. MMSI: 367780550.

Date/timePositionNaut miles runAvg speedWind from/ knotsBaromVisibWave heightAir tempDewpointWater temp
2018-Jun-21 11:53N 39°30' W 075°55'3 9.0
2018-Jun-21 11:30N 39°32' W 075°51'2 3.7
2018-Jun-21 11:00N 39°32' W 075°49'0 0.0
2018-Jun-20 21:50N 39°32' W 075°49'1 1.5
2018-Jun-20 21:30N 39°32' W 075°48'4 7.6
2018-Jun-20 21:00N 39°33' W 075°43'1 1.8
2018-Jun-20 20:30N 39°33' W 075°42'2 3.0
2018-Jun-20 20:00N 39°33' W 075°40'3 6.6
2018-Jun-20 19:30N 39°33' W 075°36'3 5.3
2018-Jun-20 19:00N 39°32' W 075°33'4 8.8
2018-Jun-20 18:30N 39°28' W 075°33'4 8.5
2018-Jun-20 18:00N 39°25' W 075°30'4 8.0
2018-Jun-20 17:31N 39°22' W 075°27'4 7.5
2018-Jun-20 17:00N 39°19' W 075°24'  
2018-Jun-17 15:01N 36°50' W 076°18'125 5.1
2018-Jun-16 14:37N 38°54' W 076°25'1 7.5
2018-Jun-16 14:30N 38°55' W 076°26'2 0.1
2018-Jun-15 19:30N 38°57' W 076°27'4 6.9
2018-Jun-15 18:59N 38°54' W 076°26'4 7.3
2018-Jun-15 18:26N 38°52' W 076°30'  
Track history (hours):
 
Tides and Currents Weather Stations Pressure Air Temp Water Temp Dewpoint Dewpoint Depression Visibility Wind Speed Wind Dir Waves Ship Positions

Mavi

Owner: Atalay, Kadri M, Silver Spring, MD. More information available from US FCC via Universal Licensing System and Coast Guard Vessel Documentation Center.

Last reported at 2018-Jun-21 11:53 UTC. Time now 2018-Jun-25 09:24 UTC.
Position N 39°30' W 075°55'.

Length 15 m.

Type: Sailing vessel. MMSI: 367780550.

Date/timePositionNaut miles runAvg speedWind from/ knotsBaromVisibWave heightAir tempDewpointWater temp
2018-Jun-21 11:53N 39°30' W 075°55'3 9.0
2018-Jun-21 11:30N 39°32' W 075°51'2 3.7
2018-Jun-21 11:00N 39°32' W 075°49'0 0.0
2018-Jun-20 21:50N 39°32' W 075°49'1 1.5
2018-Jun-20 21:30N 39°32' W 075°48'4 7.6
2018-Jun-20 21:00N 39°33' W 075°43'1 1.8
2018-Jun-20 20:30N 39°33' W 075°42'2 3.0
2018-Jun-20 20:00N 39°33' W 075°40'3 6.6
2018-Jun-20 19:30N 39°33' W 075°36'3 5.3
2018-Jun-20 19:00N 39°32' W 075°33'4 8.8
2018-Jun-20 18:30N 39°28' W 075°33'4 8.5
2018-Jun-20 18:00N 39°25' W 075°30'4 8.0
2018-Jun-20 17:31N 39°22' W 075°27'4 7.5
2018-Jun-20 17:00N 39°19' W 075°24'  
2018-Jun-17 15:01N 36°50' W 076°18'125 5.1
2018-Jun-16 14:37N 38°54' W 076°25'1 7.5
2018-Jun-16 14:30N 38°55' W 076°26'2 0.1
2018-Jun-15 19:30N 38°57' W 076°27'4 6.9
2018-Jun-15 18:59N 38°54' W 076°26'4 7.3
2018-Jun-15 18:26N 38°52' W 076°30'  

Dump ship's entire track history